Terminal Aerodrome Forecast
Issued by NWS

Home | Current Version | Previous Version | Text Only | Print | Product List | Glossary On
Versions: 1 2 3 4 5 6 7 8 9 10 11 12
370
FTUS46 KMFR 232334
TAFLMT
TAF
KLMT 232334Z 2400/2424 34010KT P6SM BKN100
     FM240500 VRB03KT P6SM SCT080=

USA.gov is the U.S. government's official web portal to all federal, state and local government web resources and services.